sensor_id;sensor_type;location;lat;lon;timestamp;pressure;altitude;pressure_sealevel;temperature;humidity
60974;BME280;46846;51.528;5.076;2024-01-11T00:00:46;102681.06;;;-4.48;77.80
60974;BME280;46846;51.528;5.076;2024-01-11T00:03:11;102677.50;;;-4.50;77.54
60974;BME280;46846;51.528;5.076;2024-01-11T00:05:37;102680.91;;;-4.51;77.46
60974;BME280;46846;51.528;5.076;2024-01-11T00:08:02;102679.91;;;-4.53;77.42
60974;BME280;46846;51.528;5.076;2024-01-11T00:10:28;102672.31;;;-4.50;77.62
60974;BME280;46846;51.528;5.076;2024-01-11T00:12:53;102670.59;;;-4.49;77.29
60974;BME280;46846;51.528;5.076;2024-01-11T00:15:19;102666.03;;;-4.54;77.49
60974;BME280;46846;51.528;5.076;2024-01-11T00:17:44;102665.13;;;-4.54;77.56
60974;BME280;46846;51.528;5.076;2024-01-11T00:20:10;102672.03;;;-4.55;77.74
60974;BME280;46846;51.528;5.076;2024-01-11T00:22:36;102664.97;;;-4.57;77.68
60974;BME280;46846;51.528;5.076;2024-01-11T00:25:01;102667.72;;;-4.54;77.43
60974;BME280;46846;51.528;5.076;2024-01-11T00:27:27;102666.75;;;-4.56;77.58
60974;BME280;46846;51.528;5.076;2024-01-11T00:29:53;102673.84;;;-4.54;77.40
60974;BME280;46846;51.528;5.076;2024-01-11T00:32:18;102672.91;;;-4.54;77.04
60974;BME280;46846;51.528;5.076;2024-01-11T00:34:46;102674.63;;;-4.55;77.64
60974;BME280;46846;51.528;5.076;2024-01-11T00:37:11;102672.84;;;-4.56;77.41
60974;BME280;46846;51.528;5.076;2024-01-11T00:39:37;102670.06;;;-4.59;77.65
60974;BME280;46846;51.528;5.076;2024-01-11T00:42:02;102671.94;;;-4.56;77.63
60974;BME280;46846;51.528;5.076;2024-01-11T00:44:27;102674.44;;;-4.58;77.45
60974;BME280;46846;51.528;5.076;2024-01-11T00:46:53;102674.38;;;-4.59;77.51
60974;BME280;46846;51.528;5.076;2024-01-11T00:49:18;102679.47;;;-4.61;77.62
60974;BME280;46846;51.528;5.076;2024-01-11T00:51:44;102676.16;;;-4.58;77.70
60974;BME280;46846;51.528;5.076;2024-01-11T00:54:09;102680.28;;;-4.62;77.74
60974;BME280;46846;51.528;5.076;2024-01-11T00:56:34;102678.50;;;-4.63;77.60
60974;BME280;46846;51.528;5.076;2024-01-11T00:59:00;102669.09;;;-4.61;77.38
60974;BME280;46846;51.528;5.076;2024-01-11T01:01:25;102678.50;;;-4.63;77.66
60974;BME280;46846;51.528;5.076;2024-01-11T01:03:51;102671.59;;;-4.62;77.57
60974;BME280;46846;51.528;5.076;2024-01-11T01:06:16;102668.94;;;-4.64;77.63
60974;BME280;46846;51.528;5.076;2024-01-11T01:08:42;102668.00;;;-4.64;77.58
60974;BME280;46846;51.528;5.076;2024-01-11T01:11:07;102672.28;;;-4.65;77.33
60974;BME280;46846;51.528;5.076;2024-01-11T01:13:33;102672.22;;;-4.67;77.51
60974;BME280;46846;51.528;5.076;2024-01-11T01:15:58;102673.81;;;-4.69;77.71
60974;BME280;46846;51.528;5.076;2024-01-11T01:18:23;102679.13;;;-4.67;77.51
60974;BME280;46846;51.528;5.076;2024-01-11T01:20:49;102680.03;;;-4.67;77.31
60974;BME280;46846;51.528;5.076;2024-01-11T01:23:15;102692.91;;;-4.68;78.11
60974;BME280;46846;51.528;5.076;2024-01-11T01:25:40;102700.81;;;-4.67;77.81
60974;BME280;46846;51.528;5.076;2024-01-11T01:28:06;102697.19;;;-4.69;77.37
60974;BME280;46846;51.528;5.076;2024-01-11T01:30:31;102689.50;;;-4.67;77.59
60974;BME280;46846;51.528;5.076;2024-01-11T01:32:56;102701.69;;;-4.66;77.44
60974;BME280;46846;51.528;5.076;2024-01-11T01:35:22;102704.38;;;-4.64;77.46
60974;BME280;46846;51.528;5.076;2024-01-11T01:37:47;102699.91;;;-4.67;77.37
60974;BME280;46846;51.528;5.076;2024-01-11T01:40:13;102700.53;;;-4.71;77.51
60974;BME280;46846;51.528;5.076;2024-01-11T01:42:45;102696.94;;;-4.73;77.58
60974;BME280;46846;51.528;5.076;2024-01-11T01:45:11;102707.31;;;-4.73;77.98
60974;BME280;46846;51.528;5.076;2024-01-11T01:47:40;102715.13;;;-4.73;77.55
60974;BME280;46846;51.528;5.076;2024-01-11T01:50:07;102711.72;;;-4.72;77.60
60974;BME280;46846;51.528;5.076;2024-01-11T01:52:33;102720.41;;;-4.72;77.71
60974;BME280;46846;51.528;5.076;2024-01-11T01:55:00;102723.72;;;-4.74;77.59
60974;BME280;46846;51.528;5.076;2024-01-11T01:57:26;102719.34;;;-4.75;77.56
60974;BME280;46846;51.528;5.076;2024-01-11T01:59:52;102723.63;;;-4.76;77.67
60974;BME280;46846;51.528;5.076;2024-01-11T02:02:19;102731.78;;;-4.70;77.56
60974;BME280;46846;51.528;5.076;2024-01-11T02:04:45;102729.00;;;-4.73;77.59
60974;BME280;46846;51.528;5.076;2024-01-11T02:07:11;102728.03;;;-4.75;77.97
60974;BME280;46846;51.528;5.076;2024-01-11T02:09:36;102728.53;;;-4.81;77.83
60974;BME280;46846;51.528;5.076;2024-01-11T02:12:02;102726.97;;;-4.78;77.91
60974;BME280;46846;51.528;5.076;2024-01-11T02:14:28;102721.66;;;-4.80;77.55
60974;BME280;46846;51.528;5.076;2024-01-11T02:16:53;102715.75;;;-4.77;78.04
60974;BME280;46846;51.528;5.076;2024-01-11T02:19:19;102722.53;;;-4.80;77.75
60974;BME280;46846;51.528;5.076;2024-01-11T02:21:46;102714.75;;;-4.80;77.60
60974;BME280;46846;51.528;5.076;2024-01-11T02:24:14;102710.47;;;-4.79;77.89
60974;BME280;46846;51.528;5.076;2024-01-11T02:29:24;102712.16;;;-4.80;77.84
60974;BME280;46846;51.528;5.076;2024-01-11T02:31:50;102717.28;;;-4.81;78.00
60974;BME280;46846;51.528;5.076;2024-01-11T02:34:15;102711.06;;;-4.83;77.82
60974;BME280;46846;51.528;5.076;2024-01-11T02:36:41;102719.78;;;-4.83;78.09
60974;BME280;46846;51.528;5.076;2024-01-11T02:39:06;102720.59;;;-4.84;78.10
60974;BME280;46846;51.528;5.076;2024-01-11T02:41:32;102715.50;;;-4.82;77.71
60974;BME280;46846;51.528;5.076;2024-01-11T02:44:00;102728.38;;;-4.84;78.05
60974;BME280;46846;51.528;5.076;2024-01-11T02:46:25;102717.00;;;-4.86;77.75
60974;BME280;46846;51.528;5.076;2024-01-11T02:48:51;102727.56;;;-4.83;77.87
60974;BME280;46846;51.528;5.076;2024-01-11T02:51:17;102724.97;;;-4.83;77.66
60974;BME280;46846;51.528;5.076;2024-01-11T02:53:43;102725.69;;;-4.85;78.13
60974;BME280;46846;51.528;5.076;2024-01-11T02:56:08;102721.28;;;-4.86;77.73
60974;BME280;46846;51.528;5.076;2024-01-11T02:58:33;102716.00;;;-4.88;78.08
60974;BME280;46846;51.528;5.076;2024-01-11T03:00:59;102715.19;;;-4.87;77.99
60974;BME280;46846;51.528;5.076;2024-01-11T03:03:24;102721.19;;;-4.88;77.58
60974;BME280;46846;51.528;5.076;2024-01-11T03:05:49;102731.56;;;-4.88;77.93
60974;BME280;46846;51.528;5.076;2024-01-11T03:08:15;102733.56;;;-4.84;77.68
60974;BME280;46846;51.528;5.076;2024-01-11T03:10:40;102726.59;;;-4.85;77.44
60974;BME280;46846;51.528;5.076;2024-01-11T03:13:07;102717.50;;;-4.91;77.84
60974;BME280;46846;51.528;5.076;2024-01-11T03:15:33;102720.31;;;-4.88;78.06
60974;BME280;46846;51.528;5.076;2024-01-11T03:17:58;102724.00;;;-4.85;77.84
60974;BME280;46846;51.528;5.076;2024-01-11T03:20:23;102729.88;;;-4.87;77.72
60974;BME280;46846;51.528;5.076;2024-01-11T03:22:52;102723.78;;;-4.88;77.79
60974;BME280;46846;51.528;5.076;2024-01-11T03:25:18;102722.97;;;-4.87;77.57
60974;BME280;46846;51.528;5.076;2024-01-11T03:27:43;102726.38;;;-4.88;77.65
60974;BME280;46846;51.528;5.076;2024-01-11T03:30:09;102728.91;;;-4.89;77.83
60974;BME280;46846;51.528;5.076;2024-01-11T03:32:35;102725.69;;;-4.85;77.42
60974;BME280;46846;51.528;5.076;2024-01-11T03:35:00;102723.88;;;-4.86;77.24
60974;BME280;46846;51.528;5.076;2024-01-11T03:37:25;102721.03;;;-4.91;77.71
60974;BME280;46846;51.528;5.076;2024-01-11T03:39:51;102725.31;;;-4.91;77.65
60974;BME280;46846;51.528;5.076;2024-01-11T03:42:16;102721.91;;;-4.90;77.68
60974;BME280;46846;51.528;5.076;2024-01-11T03:44:42;102722.00;;;-4.89;77.38
60974;BME280;46846;51.528;5.076;2024-01-11T03:47:07;102721.91;;;-4.90;77.53
60974;BME280;46846;51.528;5.076;2024-01-11T03:49:33;102724.59;;;-4.89;77.41
60974;BME280;46846;51.528;5.076;2024-01-11T03:51:58;102720.22;;;-4.90;77.43
60974;BME280;46846;51.528;5.076;2024-01-11T03:54:24;102713.03;;;-4.94;77.33
60974;BME280;46846;51.528;5.076;2024-01-11T03:56:49;102715.56;;;-4.96;77.57
60974;BME280;46846;51.528;5.076;2024-01-11T03:59:14;102709.44;;;-4.96;77.70
60974;BME280;46846;51.528;5.076;2024-01-11T04:01:40;102725.75;;;-4.99;77.44
60974;BME280;46846;51.528;5.076;2024-01-11T04:04:06;102728.25;;;-5.00;77.60
60974;BME280;46846;51.528;5.076;2024-01-11T04:06:31;102725.66;;;-5.00;77.81
60974;BME280;46846;51.528;5.076;2024-01-11T04:08:57;102739.47;;;-5.01;77.59
60974;BME280;46846;51.528;5.076;2024-01-11T04:11:23;102723.25;;;-4.97;77.94
60974;BME280;46846;51.528;5.076;2024-01-11T04:13:48;102730.88;;;-5.00;77.41
60974;BME280;46846;51.528;5.076;2024-01-11T04:16:14;102726.38;;;-5.03;77.66
60974;BME280;46846;51.528;5.076;2024-01-11T04:18:39;102729.84;;;-5.02;77.54
60974;BME280;46846;51.528;5.076;2024-01-11T04:21:04;102731.47;;;-5.04;77.54
60974;BME280;46846;51.528;5.076;2024-01-11T04:23:30;102737.47;;;-5.05;77.79
60974;BME280;46846;51.528;5.076;2024-01-11T04:25:55;102742.75;;;-5.04;77.79
60974;BME280;46846;51.528;5.076;2024-01-11T04:28:21;102752.22;;;-5.04;77.82
60974;BME280;46846;51.528;5.076;2024-01-11T04:30:46;102760.22;;;-5.01;77.51
60974;BME280;46846;51.528;5.076;2024-01-11T04:33:12;102765.59;;;-4.98;77.56
60974;BME280;46846;51.528;5.076;2024-01-11T04:35:37;102768.09;;;-5.00;77.25
60974;BME280;46846;51.528;5.076;2024-01-11T04:38:03;102764.63;;;-5.00;77.40
60974;BME280;46846;51.528;5.076;2024-01-11T04:40:28;102752.94;;;-5.07;77.77
60974;BME280;46846;51.528;5.076;2024-01-11T04:42:54;102758.22;;;-5.05;77.41
60974;BME280;46846;51.528;5.076;2024-01-11T04:45:19;102765.41;;;-5.01;77.68
60974;BME280;46846;51.528;5.076;2024-01-11T04:47:44;102765.50;;;-5.00;77.12
60974;BME280;46846;51.528;5.076;2024-01-11T04:50:10;102773.72;;;-5.07;77.25
60974;BME280;46846;51.528;5.076;2024-01-11T04:52:36;102770.41;;;-5.04;77.41
60974;BME280;46846;51.528;5.076;2024-01-11T04:55:01;102779.19;;;-5.02;77.59
60974;BME280;46846;51.528;5.076;2024-01-11T04:57:27;102781.59;;;-5.05;77.03
60974;BME280;46846;51.528;5.076;2024-01-11T04:59:52;102775.41;;;-5.08;77.39
60974;BME280;46846;51.528;5.076;2024-01-11T05:02:20;102778.72;;;-5.10;77.89
60974;BME280;46846;51.528;5.076;2024-01-11T05:04:46;102778.50;;;-5.13;77.66
60974;BME280;46846;51.528;5.076;2024-01-11T05:07:11;102773.31;;;-5.13;77.83
60974;BME280;46846;51.528;5.076;2024-01-11T05:09:37;102776.03;;;-5.12;77.56
60974;BME280;46846;51.528;5.076;2024-01-11T05:12:02;102774.34;;;-5.11;77.54
60974;BME280;46846;51.528;5.076;2024-01-11T05:14:28;102771.34;;;-5.17;77.83
60974;BME280;46846;51.528;5.076;2024-01-11T05:16:53;102781.75;;;-5.17;77.88
60974;BME280;46846;51.528;5.076;2024-01-11T05:19:19;102780.03;;;-5.17;77.31
60974;BME280;46846;51.528;5.076;2024-01-11T05:21:44;102785.44;;;-5.14;77.33
60974;BME280;46846;51.528;5.076;2024-01-11T05:24:10;102795.81;;;-5.14;77.48
60974;BME280;46846;51.528;5.076;2024-01-11T05:26:35;102803.69;;;-5.12;77.37
60974;BME280;46846;51.528;5.076;2024-01-11T05:29:01;102798.28;;;-5.15;77.26
60974;BME280;46846;51.528;5.076;2024-01-11T05:31:29;102793.63;;;-5.21;77.67
60974;BME280;46846;51.528;5.076;2024-01-11T05:33:54;102806.50;;;-5.23;77.84
60974;BME280;46846;51.528;5.076;2024-01-11T05:36:20;102799.63;;;-5.22;77.82
60974;BME280;46846;51.528;5.076;2024-01-11T05:38:45;102808.13;;;-5.25;77.44
60974;BME280;46846;51.528;5.076;2024-01-11T05:41:11;102809.81;;;-5.25;77.60
60974;BME280;46846;51.528;5.076;2024-01-11T05:43:37;102816.72;;;-5.26;77.78
60974;BME280;46846;51.528;5.076;2024-01-11T05:46:03;102815.28;;;-5.21;77.60
60974;BME280;46846;51.528;5.076;2024-01-11T05:48:28;102836.94;;;-5.20;77.39
60974;BME280;46846;51.528;5.076;2024-01-11T05:50:53;102825.97;;;-5.16;77.29
60974;BME280;46846;51.528;5.076;2024-01-11T05:53:19;102836.84;;;-5.22;77.29
60974;BME280;46846;51.528;5.076;2024-01-11T05:55:45;102838.56;;;-5.22;77.34
60974;BME280;46846;51.528;5.076;2024-01-11T05:58:11;102830.84;;;-5.21;77.40
60974;BME280;46846;51.528;5.076;2024-01-11T06:00:36;102818.09;;;-5.17;77.16
60974;BME280;46846;51.528;5.076;2024-01-11T06:03:02;102809.91;;;-5.24;77.58
60974;BME280;46846;51.528;5.076;2024-01-11T06:05:27;102811.41;;;-5.27;77.61
60974;BME280;46846;51.528;5.076;2024-01-11T06:07:53;102809.50;;;-5.30;77.64
60974;BME280;46846;51.528;5.076;2024-01-11T06:10:18;102812.91;;;-5.31;77.52
60974;BME280;46846;51.528;5.076;2024-01-11T06:12:44;102815.50;;;-5.31;77.32
60974;BME280;46846;51.528;5.076;2024-01-11T06:15:09;102830.09;;;-5.33;77.44
60974;BME280;46846;51.528;5.076;2024-01-11T06:17:35;102831.78;;;-5.33;77.92
60974;BME280;46846;51.528;5.076;2024-01-11T06:20:01;102835.19;;;-5.35;77.22
60974;BME280;46846;51.528;5.076;2024-01-11T06:22:26;102830.78;;;-5.36;77.91
60974;BME280;46846;51.528;5.076;2024-01-11T06:24:53;102844.56;;;-5.37;77.93
60974;BME280;46846;51.528;5.076;2024-01-11T06:27:18;102849.06;;;-5.34;78.02
60974;BME280;46846;51.528;5.076;2024-01-11T06:29:43;102847.34;;;-5.33;77.53
60974;BME280;46846;51.528;5.076;2024-01-11T06:32:09;102839.16;;;-5.26;77.37
60974;BME280;46846;51.528;5.076;2024-01-11T06:34:35;102829.19;;;-5.33;77.43
60974;BME280;46846;51.528;5.076;2024-01-11T06:37:00;102833.28;;;-5.37;77.65
60974;BME280;46846;51.528;5.076;2024-01-11T06:39:26;102840.06;;;-5.39;77.80
60974;BME280;46846;51.528;5.076;2024-01-11T06:41:51;102846.88;;;-5.41;77.74
60974;BME280;46846;51.528;5.076;2024-01-11T06:44:16;102852.94;;;-5.41;77.82
60974;BME280;46846;51.528;5.076;2024-01-11T06:46:43;102839.97;;;-5.41;77.91
60974;BME280;46846;51.528;5.076;2024-01-11T06:49:08;102828.59;;;-5.43;77.77
60974;BME280;46846;51.528;5.076;2024-01-11T06:51:34;102818.13;;;-5.44;77.98
60974;BME280;46846;51.528;5.076;2024-01-11T06:54:00;102823.25;;;-5.46;77.79
60974;BME280;46846;51.528;5.076;2024-01-11T06:56:27;102844.75;;;-5.47;78.06
60974;BME280;46846;51.528;5.076;2024-01-11T06:58:54;102839.50;;;-5.49;75.35
60974;BME280;46846;51.528;5.076;2024-01-11T07:01:19;102839.69;;;-5.59;75.91
60974;BME280;46846;51.528;5.076;2024-01-11T07:03:45;102843.19;;;-5.58;76.36
60974;BME280;46846;51.528;5.076;2024-01-11T07:06:10;102853.75;;;-5.55;76.65
60974;BME280;46846;51.528;5.076;2024-01-11T07:08:36;102852.06;;;-5.55;77.22
60974;BME280;46846;51.528;5.076;2024-01-11T07:11:02;102858.94;;;-5.55;77.22
60974;BME280;46846;51.528;5.076;2024-01-11T07:13:28;102861.66;;;-5.54;77.16
60974;BME280;46846;51.528;5.076;2024-01-11T07:15:54;102859.97;;;-5.53;77.36
60974;BME280;46846;51.528;5.076;2024-01-11T07:18:21;102854.66;;;-5.55;76.35
60974;BME280;46846;51.528;5.076;2024-01-11T07:20:46;102859.63;;;-5.58;77.16
60974;BME280;46846;51.528;5.076;2024-01-11T07:23:13;102874.50;;;-5.55;77.10
60974;BME280;46846;51.528;5.076;2024-01-11T07:25:38;102876.22;;;-5.56;77.20
60974;BME280;46846;51.528;5.076;2024-01-11T07:28:04;102883.31;;;-5.53;77.29
60974;BME280;46846;51.528;5.076;2024-01-11T07:30:30;102874.72;;;-5.52;77.03
60974;BME280;46846;51.528;5.076;2024-01-11T07:32:55;102864.34;;;-5.52;76.90
60974;BME280;46846;51.528;5.076;2024-01-11T07:35:21;102868.50;;;-5.54;76.99
60974;BME280;46846;51.528;5.076;2024-01-11T07:37:46;102867.63;;;-5.55;77.42
60974;BME280;46846;51.528;5.076;2024-01-11T07:40:12;102870.13;;;-5.56;77.23
60974;BME280;46846;51.528;5.076;2024-01-11T07:42:39;102884.06;;;-5.54;77.22
60974;BME280;46846;51.528;5.076;2024-01-11T07:45:08;102882.81;;;-5.47;77.23
60974;BME280;46846;51.528;5.076;2024-01-11T07:47:35;102881.69;;;-5.51;76.77
60974;BME280;46846;51.528;5.076;2024-01-11T07:50:01;102874.50;;;-5.55;76.93
60974;BME280;46846;51.528;5.076;2024-01-11T07:52:28;102876.91;;;-5.58;77.62
60974;BME280;46846;51.528;5.076;2024-01-11T07:54:54;102875.59;;;-5.52;77.17
60974;BME280;46846;51.528;5.076;2024-01-11T07:57:19;102865.63;;;-5.59;77.50
60974;BME280;46846;51.528;5.076;2024-01-11T07:59:44;102867.53;;;-5.56;77.32
60974;BME280;46846;51.528;5.076;2024-01-11T08:02:10;102880.19;;;-5.61;77.27
60974;BME280;46846;51.528;5.076;2024-01-11T08:04:35;102891.16;;;-5.52;77.30
60974;BME280;46846;51.528;5.076;2024-01-11T08:07:02;102894.06;;;-5.47;76.86
60974;BME280;46846;51.528;5.076;2024-01-11T08:09:28;102898.88;;;-5.53;76.87
60974;BME280;46846;51.528;5.076;2024-01-11T08:11:54;102881.41;;;-5.56;77.14
60974;BME280;46846;51.528;5.076;2024-01-11T08:14:20;102878.81;;;-5.56;77.03
60974;BME280;46846;51.528;5.076;2024-01-11T08:16:46;102875.31;;;-5.56;76.91
60974;BME280;46846;51.528;5.076;2024-01-11T08:19:11;102870.91;;;-5.57;76.95
60974;BME280;46846;51.528;5.076;2024-01-11T08:21:39;102876.81;;;-5.60;77.10
60974;BME280;46846;51.528;5.076;2024-01-11T08:24:04;102865.91;;;-5.54;77.16
60974;BME280;46846;51.528;5.076;2024-01-11T08:26:30;102863.94;;;-5.58;76.96
60974;BME280;46846;51.528;5.076;2024-01-11T08:28:56;102857.84;;;-5.59;77.27
60974;BME280;46846;51.528;5.076;2024-01-11T08:31:21;102851.66;;;-5.61;77.19
60974;BME280;46846;51.528;5.076;2024-01-11T08:33:46;102858.34;;;-5.65;77.52
60974;BME280;46846;51.528;5.076;2024-01-11T08:36:12;102860.03;;;-5.65;77.74
60974;BME280;46846;51.528;5.076;2024-01-11T08:38:39;102862.63;;;-5.65;77.63
60974;BME280;46846;51.528;5.076;2024-01-11T08:41:05;102859.16;;;-5.66;77.43
60974;BME280;46846;51.528;5.076;2024-01-11T08:43:31;102872.31;;;-5.63;77.43
60974;BME280;46846;51.528;5.076;2024-01-11T08:45:57;102873.34;;;-5.60;77.41
60974;BME280;46846;51.528;5.076;2024-01-11T08:48:23;102882.00;;;-5.60;77.53
60974;BME280;46846;51.528;5.076;2024-01-11T08:50:48;102881.28;;;-5.57;77.04
60974;BME280;46846;51.528;5.076;2024-01-11T08:53:13;102883.78;;;-5.59;77.16
60974;BME280;46846;51.528;5.076;2024-01-11T08:55:41;102868.91;;;-5.62;77.50
60974;BME280;46846;51.528;5.076;2024-01-11T08:58:06;102871.91;;;-5.55;77.58
60974;BME280;46846;51.528;5.076;2024-01-11T09:00:31;102876.81;;;-5.60;77.19
60974;BME280;46846;51.528;5.076;2024-01-11T09:02:57;102882.78;;;-5.61;77.35
60974;BME280;46846;51.528;5.076;2024-01-11T09:05:23;102886.38;;;-5.59;77.54
60974;BME280;46846;51.528;5.076;2024-01-11T09:07:48;102891.88;;;-5.68;77.51
60974;BME280;46846;51.528;5.076;2024-01-11T09:10:14;102900.75;;;-5.64;77.44
60974;BME280;46846;51.528;5.076;2024-01-11T09:12:39;102908.84;;;-5.59;77.42
60974;BME280;46846;51.528;5.076;2024-01-11T09:15:05;102910.53;;;-5.60;77.45
60974;BME280;46846;51.528;5.076;2024-01-11T09:17:31;102915.22;;;-5.68;77.59
60974;BME280;46846;51.528;5.076;2024-01-11T09:19:56;102909.22;;;-5.67;77.50
60974;BME280;46846;51.528;5.076;2024-01-11T09:22:21;102911.91;;;-5.65;77.84
60974;BME280;46846;51.528;5.076;2024-01-11T09:24:47;102913.44;;;-5.69;77.86
60974;BME280;46846;51.528;5.076;2024-01-11T09:27:12;102919.91;;;-5.62;77.66
60974;BME280;46846;51.528;5.076;2024-01-11T09:29:45;102908.91;;;-5.58;77.60
60974;BME280;46846;51.528;5.076;2024-01-11T09:32:11;102918.41;;;-5.58;77.78
60974;BME280;46846;51.528;5.076;2024-01-11T09:34:37;102913.41;;;-5.55;77.55
60974;BME280;46846;51.528;5.076;2024-01-11T09:37:02;102920.63;;;-5.51;77.64
60974;BME280;46846;51.528;5.076;2024-01-11T09:39:29;102930.50;;;-5.45;77.49
60974;BME280;46846;51.528;5.076;2024-01-11T09:41:59;102928.91;;;-5.57;77.38
60974;BME280;46846;51.528;5.076;2024-01-11T09:44:29;102928.97;;;-5.55;77.41
60974;BME280;46846;51.528;5.076;2024-01-11T09:46:58;102937.44;;;-5.58;77.69
60974;BME280;46846;51.528;5.076;2024-01-11T09:49:25;102937.38;;;-5.59;77.47
60974;BME280;46846;51.528;5.076;2024-01-11T09:51:51;102949.66;;;-5.57;77.87
60974;BME280;46846;51.528;5.076;2024-01-11T09:54:18;102946.84;;;-5.46;77.36
60974;BME280;46846;51.528;5.076;2024-01-11T09:56:46;102949.94;;;-5.52;77.64
60974;BME280;46846;51.528;5.076;2024-01-11T09:59:16;102957.81;;;-5.51;77.43
60974;BME280;46846;51.528;5.076;2024-01-11T10:01:43;102956.25;;;-5.49;77.27
60974;BME280;46846;51.528;5.076;2024-01-11T10:04:09;102959.94;;;-5.45;77.21
60974;BME280;46846;51.528;5.076;2024-01-11T10:06:38;102961.91;;;-5.41;76.52
60974;BME280;46846;51.528;5.076;2024-01-11T10:09:03;102968.91;;;-5.40;76.67
60974;BME280;46846;51.528;5.076;2024-01-11T10:11:29;102972.22;;;-5.42;77.03
60974;BME280;46846;51.528;5.076;2024-01-11T10:13:57;102961.50;;;-5.47;76.95
60974;BME280;46846;51.528;5.076;2024-01-11T10:16:27;102962.72;;;-5.42;76.91
60974;BME280;46846;51.528;5.076;2024-01-11T10:18:54;102962.63;;;-5.43;76.91
60974;BME280;46846;51.528;5.076;2024-01-11T10:21:20;102965.13;;;-5.45;77.04
60974;BME280;46846;51.528;5.076;2024-01-11T10:23:46;102964.22;;;-5.45;77.08
60974;BME280;46846;51.528;5.076;2024-01-11T10:26:11;102960.03;;;-5.43;76.83
60974;BME280;46846;51.528;5.076;2024-01-11T10:28:37;102960.53;;;-5.36;76.36
60974;BME280;46846;51.528;5.076;2024-01-11T10:31:04;102969.41;;;-5.32;76.30
60974;BME280;46846;51.528;5.076;2024-01-11T10:33:33;102967.41;;;-5.36;76.35
60974;BME280;46846;51.528;5.076;2024-01-11T10:36:00;102958.13;;;-5.32;76.07
60974;BME280;46846;51.528;5.076;2024-01-11T10:38:26;102966.03;;;-5.31;75.97
60974;BME280;46846;51.528;5.076;2024-01-11T10:40:53;102976.28;;;-5.32;76.00
60974;BME280;46846;51.528;5.076;2024-01-11T10:43:21;102966.72;;;-5.33;76.18
60974;BME280;46846;51.528;5.076;2024-01-11T10:45:48;102971.84;;;-5.35;76.80
60974;BME280;46846;51.528;5.076;2024-01-11T10:48:20;102970.41;;;-5.30;75.64
60974;BME280;46846;51.528;5.076;2024-01-11T10:50:49;102965.22;;;-5.30;75.57
60974;BME280;46846;51.528;5.076;2024-01-11T10:55:46;102972.91;;;-5.18;73.52
60974;BME280;46846;51.528;5.076;2024-01-11T10:58:13;102962.91;;;-5.25;75.04
60974;BME280;46846;51.528;5.076;2024-01-11T11:00:40;102968.03;;;-5.27;74.66
60974;BME280;46846;51.528;5.076;2024-01-11T11:03:06;102959.84;;;-5.19;72.64
60974;BME280;46846;51.528;5.076;2024-01-11T11:05:34;102957.03;;;-5.23;74.32
60974;BME280;46846;51.528;5.076;2024-01-11T11:08:01;102966.72;;;-5.20;73.18
60974;BME280;46846;51.528;5.076;2024-01-11T11:10:28;102965.03;;;-5.33;75.35
60974;BME280;46846;51.528;5.076;2024-01-11T11:12:54;102963.13;;;-5.36;75.39
60974;BME280;46846;51.528;5.076;2024-01-11T11:15:22;102963.63;;;-5.28;73.77
60974;BME280;46846;51.528;5.076;2024-01-11T11:17:49;102970.13;;;-5.21;72.21
60974;BME280;46846;51.528;5.076;2024-01-11T11:20:15;102975.50;;;-5.18;72.52
60974;BME280;46846;51.528;5.076;2024-01-11T11:22:41;102978.91;;;-5.19;72.97
60974;BME280;46846;51.528;5.076;2024-01-11T11:25:09;102978.72;;;-5.22;74.21
60974;BME280;46846;51.528;5.076;2024-01-11T11:27:36;102979.41;;;-5.25;74.36
60974;BME280;46846;51.528;5.076;2024-01-11T11:30:05;102989.50;;;-5.16;72.56
60974;BME280;46846;51.528;5.076;2024-01-11T11:32:38;102989.50;;;-5.16;73.04
60974;BME280;46846;51.528;5.076;2024-01-11T11:35:06;102997.88;;;-5.20;74.42
60974;BME280;46846;51.528;5.076;2024-01-11T11:37:33;103004.44;;;-5.25;75.29
60974;BME280;46846;51.528;5.076;2024-01-11T11:39:59;103005.16;;;-5.14;72.99
60974;BME280;46846;51.528;5.076;2024-01-11T11:42:25;103008.25;;;-5.20;74.66
60974;BME280;46846;51.528;5.076;2024-01-11T11:44:51;103006.88;;;-5.15;73.19
60974;BME280;46846;51.528;5.076;2024-01-11T11:47:21;103008.06;;;-5.23;74.20
60974;BME280;46846;51.528;5.076;2024-01-11T11:52:32;102995.78;;;-5.12;72.19
60974;BME280;46846;51.528;5.076;2024-01-11T11:54:59;103002.84;;;-5.10;73.45
60974;BME280;46846;51.528;5.076;2024-01-11T11:57:26;102996.16;;;-5.06;72.45
60974;BME280;46846;51.528;5.076;2024-01-11T11:59:57;102993.09;;;-5.14;74.72
60974;BME280;46846;51.528;5.076;2024-01-11T12:02:30;102994.06;;;-5.12;74.33
60974;BME280;46846;51.528;5.076;2024-01-11T12:04:56;102997.25;;;-5.02;72.42
60974;BME280;46846;51.528;5.076;2024-01-11T12:07:21;103000.38;;;-5.08;74.38
60974;BME280;46846;51.528;5.076;2024-01-11T12:09:49;102994.88;;;-4.99;72.32
60974;BME280;46846;51.528;5.076;2024-01-11T12:12:14;102992.28;;;-4.99;71.80
60974;BME280;46846;51.528;5.076;2024-01-11T12:14:41;102995.47;;;-5.03;73.11
60974;BME280;46846;51.528;5.076;2024-01-11T12:17:06;102980.13;;;-5.00;72.28
60974;BME280;46846;51.528;5.076;2024-01-11T12:19:32;102979.50;;;-4.96;71.97
60974;BME280;46846;51.528;5.076;2024-01-11T12:21:58;102976.81;;;-4.98;72.60
60974;BME280;46846;51.528;5.076;2024-01-11T12:24:23;102968.31;;;-4.95;72.54
60974;BME280;46846;51.528;5.076;2024-01-11T12:26:49;102966.31;;;-4.99;73.38
60974;BME280;46846;51.528;5.076;2024-01-11T12:29:19;102969.03;;;-4.98;73.11
60974;BME280;46846;51.528;5.076;2024-01-11T12:31:45;102959.53;;;-4.97;73.40
60974;BME280;46846;51.528;5.076;2024-01-11T12:34:14;102968.72;;;-5.02;75.60
60974;BME280;46846;51.528;5.076;2024-01-11T12:36:40;102963.16;;;-5.09;75.18
60974;BME280;46846;51.528;5.076;2024-01-11T12:39:05;102956.63;;;-5.02;75.04
60974;BME280;46846;51.528;5.076;2024-01-11T12:41:32;102958.94;;;-4.93;74.90
60974;BME280;46846;51.528;5.076;2024-01-11T12:43:58;102963.00;;;-4.83;73.56
60974;BME280;46846;51.528;5.076;2024-01-11T12:46:24;102963.91;;;-4.83;74.78
60974;BME280;46846;51.528;5.076;2024-01-11T12:48:50;102965.91;;;-4.78;75.24
60974;BME280;46846;51.528;5.076;2024-01-11T12:51:16;102956.50;;;-4.76;75.43